sensor_id;sensor_type;location;lat;lon;timestamp;P1;durP1;ratioP1;P2;durP2;ratioP2
11439;SDS011;5776;51.814;4.510;2023-05-19T00:01:39;7.50;;;2.70;;
11439;SDS011;5776;51.814;4.510;2023-05-19T00:04:08;7.73;;;2.23;;
11439;SDS011;5776;51.814;4.510;2023-05-19T00:06:37;8.80;;;2.50;;
11439;SDS011;5776;51.814;4.510;2023-05-19T00:11:30;5.20;;;2.60;;
11439;SDS011;5776;51.814;4.510;2023-05-19T00:13:57;4.53;;;2.30;;
11439;SDS011;5776;51.814;4.510;2023-05-19T00:16:25;5.77;;;2.63;;
11439;SDS011;5776;51.814;4.510;2023-05-19T00:18:52;6.23;;;2.30;;
11439;SDS011;5776;51.814;4.510;2023-05-19T00:21:18;5.10;;;2.30;;
11439;SDS011;5776;51.814;4.510;2023-05-19T00:23:45;6.60;;;2.40;;
11439;SDS011;5776;51.814;4.510;2023-05-19T00:26:10;4.70;;;2.30;;
11439;SDS011;5776;51.814;4.510;2023-05-19T00:28:36;7.83;;;2.53;;
11439;SDS011;5776;51.814;4.510;2023-05-19T00:31:03;6.73;;;2.47;;
11439;SDS011;5776;51.814;4.510;2023-05-19T00:33:30;10.00;;;2.97;;
11439;SDS011;5776;51.814;4.510;2023-05-19T00:35:58;7.40;;;2.40;;
11439;SDS011;5776;51.814;4.510;2023-05-19T00:38:29;4.80;;;2.40;;
11439;SDS011;5776;51.814;4.510;2023-05-19T00:40:56;7.13;;;2.67;;
11439;SDS011;5776;51.814;4.510;2023-05-19T00:43:21;6.33;;;2.70;;
11439;SDS011;5776;51.814;4.510;2023-05-19T00:45:47;6.57;;;2.57;;
11439;SDS011;5776;51.814;4.510;2023-05-19T00:48:13;3.50;;;1.97;;
11439;SDS011;5776;51.814;4.510;2023-05-19T00:50:39;5.97;;;2.10;;
11439;SDS011;5776;51.814;4.510;2023-05-19T00:53:06;5.37;;;2.43;;
11439;SDS011;5776;51.814;4.510;2023-05-19T00:55:32;5.80;;;2.27;;
11439;SDS011;5776;51.814;4.510;2023-05-19T00:58:01;4.17;;;2.00;;
11439;SDS011;5776;51.814;4.510;2023-05-19T01:00:28;4.63;;;1.83;;
11439;SDS011;5776;51.814;4.510;2023-05-19T01:02:55;7.50;;;2.73;;
11439;SDS011;5776;51.814;4.510;2023-05-19T01:05:21;6.93;;;2.87;;
11439;SDS011;5776;51.814;4.510;2023-05-19T01:07:47;5.33;;;2.90;;
11439;SDS011;5776;51.814;4.510;2023-05-19T01:10:21;7.13;;;2.60;;
11439;SDS011;5776;51.814;4.510;2023-05-19T01:12:47;3.83;;;2.13;;
11439;SDS011;5776;51.814;4.510;2023-05-19T01:15:13;9.73;;;2.60;;
11439;SDS011;5776;51.814;4.510;2023-05-19T01:20:43;5.57;;;2.27;;
11439;SDS011;5776;51.814;4.510;2023-05-19T01:23:27;3.47;;;2.33;;
11439;SDS011;5776;51.814;4.510;2023-05-19T01:26:25;9.13;;;2.50;;
11439;SDS011;5776;51.814;4.510;2023-05-19T01:31:32;7.47;;;3.00;;
11439;SDS011;5776;51.814;4.510;2023-05-19T01:34:01;4.93;;;2.73;;
11439;SDS011;5776;51.814;4.510;2023-05-19T01:36:29;7.80;;;3.00;;
11439;SDS011;5776;51.814;4.510;2023-05-19T01:38:57;5.80;;;2.67;;
11439;SDS011;5776;51.814;4.510;2023-05-19T01:41:24;5.97;;;2.50;;
11439;SDS011;5776;51.814;4.510;2023-05-19T01:43:52;5.63;;;1.93;;
11439;SDS011;5776;51.814;4.510;2023-05-19T01:46:19;3.70;;;2.30;;
11439;SDS011;5776;51.814;4.510;2023-05-19T01:48:46;5.00;;;2.63;;
11439;SDS011;5776;51.814;4.510;2023-05-19T01:51:13;6.37;;;2.67;;
11439;SDS011;5776;51.814;4.510;2023-05-19T01:53:38;6.60;;;2.73;;
11439;SDS011;5776;51.814;4.510;2023-05-19T01:56:05;5.43;;;2.57;;
11439;SDS011;5776;51.814;4.510;2023-05-19T02:09:50;3.37;;;2.27;;
11439;SDS011;5776;51.814;4.510;2023-05-19T02:12:24;9.77;;;2.77;;
11439;SDS011;5776;51.814;4.510;2023-05-19T02:15:06;5.13;;;2.37;;
11439;SDS011;5776;51.814;4.510;2023-05-19T02:17:36;8.00;;;3.30;;
11439;SDS011;5776;51.814;4.510;2023-05-19T02:20:06;5.33;;;2.30;;
11439;SDS011;5776;51.814;4.510;2023-05-19T02:22:34;7.13;;;2.80;;
11439;SDS011;5776;51.814;4.510;2023-05-19T02:25:00;6.20;;;3.27;;
11439;SDS011;5776;51.814;4.510;2023-05-19T02:27:26;9.57;;;2.77;;
11439;SDS011;5776;51.814;4.510;2023-05-19T02:29:52;6.27;;;2.73;;
11439;SDS011;5776;51.814;4.510;2023-05-19T02:32:19;6.90;;;2.73;;
11439;SDS011;5776;51.814;4.510;2023-05-19T02:34:49;5.37;;;3.17;;
11439;SDS011;5776;51.814;4.510;2023-05-19T02:37:15;8.27;;;2.50;;
11439;SDS011;5776;51.814;4.510;2023-05-19T02:39:41;6.33;;;2.50;;
11439;SDS011;5776;51.814;4.510;2023-05-19T02:42:08;7.00;;;3.03;;
11439;SDS011;5776;51.814;4.510;2023-05-19T02:44:34;7.17;;;2.83;;
11439;SDS011;5776;51.814;4.510;2023-05-19T02:47:00;7.23;;;3.00;;
11439;SDS011;5776;51.814;4.510;2023-05-19T02:49:26;6.63;;;2.70;;
11439;SDS011;5776;51.814;4.510;2023-05-19T02:51:55;6.97;;;2.30;;
11439;SDS011;5776;51.814;4.510;2023-05-19T02:54:21;6.97;;;3.00;;
11439;SDS011;5776;51.814;4.510;2023-05-19T02:56:47;6.10;;;2.50;;
11439;SDS011;5776;51.814;4.510;2023-05-19T02:59:13;5.70;;;2.63;;
11439;SDS011;5776;51.814;4.510;2023-05-19T03:01:39;9.57;;;2.90;;
11439;SDS011;5776;51.814;4.510;2023-05-19T03:04:05;4.67;;;2.20;;
11439;SDS011;5776;51.814;4.510;2023-05-19T03:06:30;5.40;;;2.53;;
11439;SDS011;5776;51.814;4.510;2023-05-19T03:08:57;6.07;;;2.30;;
11439;SDS011;5776;51.814;4.510;2023-05-19T03:11:23;9.33;;;2.93;;
11439;SDS011;5776;51.814;4.510;2023-05-19T03:13:49;7.93;;;2.83;;
11439;SDS011;5776;51.814;4.510;2023-05-19T03:16:15;6.03;;;2.50;;
11439;SDS011;5776;51.814;4.510;2023-05-19T03:18:41;6.57;;;2.30;;
11439;SDS011;5776;51.814;4.510;2023-05-19T03:21:07;5.73;;;2.60;;
11439;SDS011;5776;51.814;4.510;2023-05-19T03:23:33;5.77;;;2.40;;
11439;SDS011;5776;51.814;4.510;2023-05-19T03:25:59;5.60;;;2.57;;
11439;SDS011;5776;51.814;4.510;2023-05-19T03:28:25;5.60;;;2.63;;
11439;SDS011;5776;51.814;4.510;2023-05-19T03:30:52;5.87;;;2.30;;
11439;SDS011;5776;51.814;4.510;2023-05-19T03:33:18;7.10;;;3.23;;
11439;SDS011;5776;51.814;4.510;2023-05-19T03:35:44;3.67;;;2.30;;
11439;SDS011;5776;51.814;4.510;2023-05-19T03:38:10;7.80;;;2.90;;
11439;SDS011;5776;51.814;4.510;2023-05-19T03:40:36;11.67;;;3.20;;
11439;SDS011;5776;51.814;4.510;2023-05-19T03:43:02;10.40;;;3.07;;
11439;SDS011;5776;51.814;4.510;2023-05-19T03:45:28;5.33;;;2.43;;
11439;SDS011;5776;51.814;4.510;2023-05-19T03:47:54;5.27;;;2.17;;
11439;SDS011;5776;51.814;4.510;2023-05-19T03:50:20;7.47;;;2.83;;
11439;SDS011;5776;51.814;4.510;2023-05-19T03:52:47;7.80;;;2.70;;
11439;SDS011;5776;51.814;4.510;2023-05-19T03:55:13;7.80;;;2.60;;
11439;SDS011;5776;51.814;4.510;2023-05-19T03:57:39;3.83;;;2.43;;
11439;SDS011;5776;51.814;4.510;2023-05-19T04:00:09;8.63;;;3.20;;
11439;SDS011;5776;51.814;4.510;2023-05-19T04:02:37;5.27;;;2.93;;
11439;SDS011;5776;51.814;4.510;2023-05-19T04:05:04;8.33;;;2.70;;
11439;SDS011;5776;51.814;4.510;2023-05-19T04:07:30;5.97;;;3.00;;
11439;SDS011;5776;51.814;4.510;2023-05-19T04:09:56;7.13;;;2.73;;
11439;SDS011;5776;51.814;4.510;2023-05-19T04:12:22;7.30;;;2.90;;
11439;SDS011;5776;51.814;4.510;2023-05-19T04:14:48;6.77;;;2.93;;
11439;SDS011;5776;51.814;4.510;2023-05-19T04:17:14;7.30;;;2.83;;
11439;SDS011;5776;51.814;4.510;2023-05-19T04:19:40;8.13;;;3.20;;
11439;SDS011;5776;51.814;4.510;2023-05-19T04:22:06;6.47;;;2.87;;
11439;SDS011;5776;51.814;4.510;2023-05-19T04:24:31;7.73;;;2.80;;
11439;SDS011;5776;51.814;4.510;2023-05-19T04:26:58;6.23;;;2.80;;
11439;SDS011;5776;51.814;4.510;2023-05-19T04:29:27;8.47;;;3.00;;
11439;SDS011;5776;51.814;4.510;2023-05-19T04:31:54;5.70;;;3.10;;
11439;SDS011;5776;51.814;4.510;2023-05-19T04:34:20;5.47;;;2.30;;
11439;SDS011;5776;51.814;4.510;2023-05-19T04:36:46;4.93;;;2.37;;
11439;SDS011;5776;51.814;4.510;2023-05-19T04:39:12;6.53;;;2.27;;
11439;SDS011;5776;51.814;4.510;2023-05-19T04:41:38;7.17;;;2.67;;
11439;SDS011;5776;51.814;4.510;2023-05-19T04:44:09;10.17;;;2.83;;
11439;SDS011;5776;51.814;4.510;2023-05-19T04:46:35;8.90;;;3.27;;
11439;SDS011;5776;51.814;4.510;2023-05-19T04:49:01;12.43;;;3.40;;
11439;SDS011;5776;51.814;4.510;2023-05-19T04:51:27;8.37;;;3.40;;
11439;SDS011;5776;51.814;4.510;2023-05-19T04:53:56;10.60;;;2.83;;
11439;SDS011;5776;51.814;4.510;2023-05-19T04:56:22;4.13;;;2.60;;
11439;SDS011;5776;51.814;4.510;2023-05-19T04:58:48;9.60;;;3.20;;
11439;SDS011;5776;51.814;4.510;2023-05-19T05:01:14;6.53;;;3.13;;
11439;SDS011;5776;51.814;4.510;2023-05-19T05:03:40;6.87;;;2.90;;
11439;SDS011;5776;51.814;4.510;2023-05-19T05:06:07;6.60;;;2.67;;
11439;SDS011;5776;51.814;4.510;2023-05-19T05:08:33;7.90;;;2.73;;
11439;SDS011;5776;51.814;4.510;2023-05-19T05:10:59;9.40;;;2.63;;
11439;SDS011;5776;51.814;4.510;2023-05-19T05:13:25;5.23;;;2.30;;
11439;SDS011;5776;51.814;4.510;2023-05-19T05:15:52;6.63;;;3.07;;
11439;SDS011;5776;51.814;4.510;2023-05-19T05:18:18;8.20;;;3.23;;
11439;SDS011;5776;51.814;4.510;2023-05-19T05:20:44;9.37;;;3.37;;
11439;SDS011;5776;51.814;4.510;2023-05-19T05:23:11;10.83;;;3.20;;
11439;SDS011;5776;51.814;4.510;2023-05-19T05:25:39;9.93;;;3.67;;
11439;SDS011;5776;51.814;4.510;2023-05-19T05:28:06;8.77;;;3.40;;
11439;SDS011;5776;51.814;4.510;2023-05-19T05:30:32;7.97;;;2.83;;
11439;SDS011;5776;51.814;4.510;2023-05-19T05:33:00;7.13;;;3.43;;
11439;SDS011;5776;51.814;4.510;2023-05-19T05:35:26;10.17;;;2.90;;
11439;SDS011;5776;51.814;4.510;2023-05-19T05:37:53;6.73;;;2.67;;
11439;SDS011;5776;51.814;4.510;2023-05-19T05:40:19;5.70;;;3.07;;
11439;SDS011;5776;51.814;4.510;2023-05-19T05:42:45;5.23;;;2.50;;
11439;SDS011;5776;51.814;4.510;2023-05-19T05:45:11;5.20;;;2.83;;
11439;SDS011;5776;51.814;4.510;2023-05-19T05:47:37;7.70;;;3.37;;
11439;SDS011;5776;51.814;4.510;2023-05-19T05:50:04;5.80;;;3.13;;
11439;SDS011;5776;51.814;4.510;2023-05-19T05:52:31;8.27;;;3.77;;
11439;SDS011;5776;51.814;4.510;2023-05-19T05:54:57;7.77;;;3.27;;
11439;SDS011;5776;51.814;4.510;2023-05-19T05:57:23;8.03;;;3.10;;
11439;SDS011;5776;51.814;4.510;2023-05-19T05:59:49;8.43;;;3.67;;
11439;SDS011;5776;51.814;4.510;2023-05-19T06:02:18;9.07;;;3.17;;
11439;SDS011;5776;51.814;4.510;2023-05-19T06:04:44;5.13;;;2.50;;
11439;SDS011;5776;51.814;4.510;2023-05-19T06:07:10;4.97;;;2.87;;
11439;SDS011;5776;51.814;4.510;2023-05-19T06:09:36;7.60;;;3.50;;
11439;SDS011;5776;51.814;4.510;2023-05-19T06:12:02;9.63;;;4.07;;
11439;SDS011;5776;51.814;4.510;2023-05-19T06:14:28;7.67;;;3.67;;
11439;SDS011;5776;51.814;4.510;2023-05-19T06:16:54;9.77;;;3.93;;
11439;SDS011;5776;51.814;4.510;2023-05-19T06:19:20;9.30;;;3.30;;
11439;SDS011;5776;51.814;4.510;2023-05-19T06:21:45;11.10;;;4.83;;
11439;SDS011;5776;51.814;4.510;2023-05-19T06:24:11;9.50;;;4.03;;
11439;SDS011;5776;51.814;4.510;2023-05-19T06:26:37;6.27;;;3.90;;
11439;SDS011;5776;51.814;4.510;2023-05-19T06:29:03;11.53;;;3.93;;
11439;SDS011;5776;51.814;4.510;2023-05-19T06:31:29;7.03;;;4.30;;
11439;SDS011;5776;51.814;4.510;2023-05-19T06:33:55;8.63;;;3.80;;
11439;SDS011;5776;51.814;4.510;2023-05-19T06:36:21;6.77;;;3.67;;
11439;SDS011;5776;51.814;4.510;2023-05-19T06:38:47;10.10;;;4.23;;
11439;SDS011;5776;51.814;4.510;2023-05-19T06:41:13;7.57;;;3.73;;
11439;SDS011;5776;51.814;4.510;2023-05-19T06:43:39;6.27;;;3.77;;
11439;SDS011;5776;51.814;4.510;2023-05-19T06:46:05;6.27;;;3.03;;
11439;SDS011;5776;51.814;4.510;2023-05-19T06:48:32;8.20;;;3.17;;
11439;SDS011;5776;51.814;4.510;2023-05-19T06:50:58;7.77;;;3.67;;
11439;SDS011;5776;51.814;4.510;2023-05-19T06:53:24;3.77;;;2.70;;
11439;SDS011;5776;51.814;4.510;2023-05-19T06:55:50;8.10;;;3.73;;
11439;SDS011;5776;51.814;4.510;2023-05-19T06:58:16;6.03;;;3.17;;
11439;SDS011;5776;51.814;4.510;2023-05-19T07:00:42;6.13;;;3.00;;
11439;SDS011;5776;51.814;4.510;2023-05-19T07:03:08;7.00;;;2.73;;
11439;SDS011;5776;51.814;4.510;2023-05-19T07:05:34;7.03;;;3.40;;
11439;SDS011;5776;51.814;4.510;2023-05-19T07:08:00;7.40;;;2.93;;
11439;SDS011;5776;51.814;4.510;2023-05-19T07:10:26;9.27;;;3.60;;
11439;SDS011;5776;51.814;4.510;2023-05-19T07:12:52;8.53;;;2.80;;
11439;SDS011;5776;51.814;4.510;2023-05-19T07:15:18;6.97;;;2.50;;
11439;SDS011;5776;51.814;4.510;2023-05-19T07:17:44;9.83;;;3.23;;
11439;SDS011;5776;51.814;4.510;2023-05-19T07:20:10;6.10;;;3.17;;
11439;SDS011;5776;51.814;4.510;2023-05-19T07:22:36;8.63;;;4.33;;
11439;SDS011;5776;51.814;4.510;2023-05-19T07:25:04;5.70;;;3.50;;
11439;SDS011;5776;51.814;4.510;2023-05-19T07:27:31;9.23;;;3.43;;
11439;SDS011;5776;51.814;4.510;2023-05-19T07:29:57;5.33;;;3.07;;
11439;SDS011;5776;51.814;4.510;2023-05-19T07:32:23;9.90;;;3.80;;
11439;SDS011;5776;51.814;4.510;2023-05-19T07:34:50;8.77;;;3.00;;
11439;SDS011;5776;51.814;4.510;2023-05-19T07:37:16;8.63;;;3.50;;
11439;SDS011;5776;51.814;4.510;2023-05-19T07:39:42;10.43;;;3.67;;
11439;SDS011;5776;51.814;4.510;2023-05-19T07:42:08;6.93;;;3.00;;
11439;SDS011;5776;51.814;4.510;2023-05-19T07:44:33;11.33;;;5.00;;
11439;SDS011;5776;51.814;4.510;2023-05-19T07:46:59;12.87;;;3.40;;
11439;SDS011;5776;51.814;4.510;2023-05-19T07:49:26;7.10;;;3.47;;
11439;SDS011;5776;51.814;4.510;2023-05-19T07:51:52;9.70;;;3.73;;
11439;SDS011;5776;51.814;4.510;2023-05-19T07:54:18;8.00;;;2.90;;
11439;SDS011;5776;51.814;4.510;2023-05-19T07:56:44;5.17;;;2.37;;
11439;SDS011;5776;51.814;4.510;2023-05-19T07:59:10;11.20;;;3.00;;
11439;SDS011;5776;51.814;4.510;2023-05-19T08:01:36;10.63;;;4.07;;
11439;SDS011;5776;51.814;4.510;2023-05-19T08:04:02;9.00;;;3.93;;
11439;SDS011;5776;51.814;4.510;2023-05-19T08:06:28;6.83;;;3.30;;
11439;SDS011;5776;51.814;4.510;2023-05-19T08:08:54;5.67;;;3.77;;
11439;SDS011;5776;51.814;4.510;2023-05-19T08:11:20;9.20;;;3.87;;
11439;SDS011;5776;51.814;4.510;2023-05-19T08:13:46;4.97;;;3.27;;
11439;SDS011;5776;51.814;4.510;2023-05-19T08:16:14;8.77;;;3.70;;
11439;SDS011;5776;51.814;4.510;2023-05-19T08:18:40;15.03;;;3.77;;
11439;SDS011;5776;51.814;4.510;2023-05-19T08:21:06;8.67;;;4.00;;
11439;SDS011;5776;51.814;4.510;2023-05-19T08:23:32;5.50;;;2.77;;
11439;SDS011;5776;51.814;4.510;2023-05-19T08:25:59;7.40;;;3.10;;
11439;SDS011;5776;51.814;4.510;2023-05-19T08:28:25;7.50;;;3.50;;
11439;SDS011;5776;51.814;4.510;2023-05-19T08:30:51;9.63;;;3.80;;
11439;SDS011;5776;51.814;4.510;2023-05-19T08:33:17;8.53;;;3.33;;
11439;SDS011;5776;51.814;4.510;2023-05-19T08:35:45;6.57;;;2.87;;
11439;SDS011;5776;51.814;4.510;2023-05-19T08:38:11;9.50;;;3.37;;
11439;SDS011;5776;51.814;4.510;2023-05-19T08:40:37;6.50;;;2.67;;
11439;SDS011;5776;51.814;4.510;2023-05-19T08:43:06;5.37;;;2.57;;
11439;SDS011;5776;51.814;4.510;2023-05-19T08:45:32;6.17;;;2.20;;
11439;SDS011;5776;51.814;4.510;2023-05-19T08:48:04;5.13;;;2.40;;
11439;SDS011;5776;51.814;4.510;2023-05-19T08:50:31;5.90;;;2.30;;
11439;SDS011;5776;51.814;4.510;2023-05-19T08:53:35;4.23;;;1.67;;
11439;SDS011;5776;51.814;4.510;2023-05-19T08:58:49;3.03;;;1.93;;
11439;SDS011;5776;51.814;4.510;2023-05-19T09:01:16;6.73;;;2.37;;
11439;SDS011;5776;51.814;4.510;2023-05-19T09:03:44;5.67;;;1.93;;
11439;SDS011;5776;51.814;4.510;2023-05-19T09:06:10;5.40;;;1.73;;
11439;SDS011;5776;51.814;4.510;2023-05-19T09:08:38;9.60;;;2.40;;
11439;SDS011;5776;51.814;4.510;2023-05-19T09:11:10;7.03;;;2.27;;
11439;SDS011;5776;51.814;4.510;2023-05-19T09:13:36;5.13;;;2.10;;
11439;SDS011;5776;51.814;4.510;2023-05-19T09:16:02;5.77;;;2.50;;
11439;SDS011;5776;51.814;4.510;2023-05-19T09:18:29;5.80;;;2.17;;
11439;SDS011;5776;51.814;4.510;2023-05-19T09:20:56;5.80;;;2.27;;
11439;SDS011;5776;51.814;4.510;2023-05-19T09:23:28;6.63;;;2.33;;
11439;SDS011;5776;51.814;4.510;2023-05-19T09:25:55;5.83;;;2.00;;
11439;SDS011;5776;51.814;4.510;2023-05-19T09:28:25;3.53;;;2.10;;
11439;SDS011;5776;51.814;4.510;2023-05-19T09:31:06;7.40;;;2.63;;
11439;SDS011;5776;51.814;4.510;2023-05-19T09:33:34;7.27;;;2.80;;
11439;SDS011;5776;51.814;4.510;2023-05-19T09:36:01;6.47;;;3.03;;
11439;SDS011;5776;51.814;4.510;2023-05-19T09:38:30;7.43;;;2.17;;
11439;SDS011;5776;51.814;4.510;2023-05-19T09:40:57;8.23;;;2.53;;
11439;SDS011;5776;51.814;4.510;2023-05-19T09:43:31;4.50;;;1.60;;
11439;SDS011;5776;51.814;4.510;2023-05-19T09:48:35;6.07;;;2.40;;
11439;SDS011;5776;51.814;4.510;2023-05-19T09:51:01;5.50;;;1.87;;
11439;SDS011;5776;51.814;4.510;2023-05-19T09:53:32;5.57;;;1.60;;
11439;SDS011;5776;51.814;4.510;2023-05-19T09:55:59;3.63;;;1.87;;
11439;SDS011;5776;51.814;4.510;2023-05-19T09:58:29;2.67;;;1.30;;
11439;SDS011;5776;51.814;4.510;2023-05-19T10:00:59;5.47;;;1.97;;
11439;SDS011;5776;51.814;4.510;2023-05-19T10:03:26;6.10;;;2.30;;
11439;SDS011;5776;51.814;4.510;2023-05-19T10:05:52;2.10;;;1.47;;
11439;SDS011;5776;51.814;4.510;2023-05-19T10:08:19;7.20;;;1.90;;
11439;SDS011;5776;51.814;4.510;2023-05-19T10:10:48;5.20;;;1.53;;
11439;SDS011;5776;51.814;4.510;2023-05-19T10:13:14;5.07;;;1.50;;
11439;SDS011;5776;51.814;4.510;2023-05-19T10:15:41;7.60;;;1.90;;
11439;SDS011;5776;51.814;4.510;2023-05-19T10:18:10;5.87;;;2.50;;
11439;SDS011;5776;51.814;4.510;2023-05-19T10:20:38;11.20;;;2.40;;
11439;SDS011;5776;51.814;4.510;2023-05-19T10:23:04;6.20;;;2.07;;
11439;SDS011;5776;51.814;4.510;2023-05-19T10:25:31;6.60;;;1.70;;
11439;SDS011;5776;51.814;4.510;2023-05-19T10:28:00;3.73;;;1.67;;
11439;SDS011;5776;51.814;4.510;2023-05-19T10:30:39;3.50;;;1.47;;
11439;SDS011;5776;51.814;4.510;2023-05-19T10:33:13;2.30;;;1.27;;
11439;SDS011;5776;51.814;4.510;2023-05-19T10:44:33;2.90;;;1.30;;
11439;SDS011;5776;51.814;4.510;2023-05-19T10:46:59;2.97;;;1.30;;
11439;SDS011;5776;51.814;4.510;2023-05-19T10:49:25;5.23;;;1.50;;
11439;SDS011;5776;51.814;4.510;2023-05-19T10:51:51;7.67;;;1.43;;
11439;SDS011;5776;51.814;4.510;2023-05-19T10:54:39;4.70;;;1.40;;
11439;SDS011;5776;51.814;4.510;2023-05-19T10:57:08;3.40;;;1.87;;
11439;SDS011;5776;51.814;4.510;2023-05-19T10:59:39;6.87;;;1.90;;
11439;SDS011;5776;51.814;4.510;2023-05-19T11:02:07;7.03;;;1.80;;
11439;SDS011;5776;51.814;4.510;2023-05-19T11:04:46;3.57;;;1.30;;
11439;SDS011;5776;51.814;4.510;2023-05-19T11:07:21;3.57;;;1.13;;
11439;SDS011;5776;51.814;4.510;2023-05-19T11:09:49;3.83;;;1.60;;
11439;SDS011;5776;51.814;4.510;2023-05-19T11:12:19;6.00;;;1.80;;
11439;SDS011;5776;51.814;4.510;2023-05-19T11:14:51;7.40;;;1.60;;
11439;SDS011;5776;51.814;4.510;2023-05-19T11:17:18;7.73;;;1.77;;
11439;SDS011;5776;51.814;4.510;2023-05-19T11:19:54;2.57;;;1.47;;
11439;SDS011;5776;51.814;4.510;2023-05-19T11:22:30;5.07;;;1.60;;
11439;SDS011;5776;51.814;4.510;2023-05-19T11:24:58;7.17;;;1.60;;
11439;SDS011;5776;51.814;4.510;2023-05-19T11:27:28;3.80;;;1.30;;
11439;SDS011;5776;51.814;4.510;2023-05-19T11:29:59;3.30;;;1.50;;
11439;SDS011;5776;51.814;4.510;2023-05-19T11:32:28;3.27;;;1.30;;
11439;SDS011;5776;51.814;4.510;2023-05-19T11:34:56;2.60;;;1.67;;
11439;SDS011;5776;51.814;4.510;2023-05-19T11:37:22;4.93;;;1.60;;
11439;SDS011;5776;51.814;4.510;2023-05-19T11:39:48;7.13;;;1.50;;
11439;SDS011;5776;51.814;4.510;2023-05-19T11:42:14;6.40;;;2.47;;
11439;SDS011;5776;51.814;4.510;2023-05-19T11:44:41;3.83;;;1.83;;
11439;SDS011;5776;51.814;4.510;2023-05-19T11:47:11;4.33;;;1.87;;
11439;SDS011;5776;51.814;4.510;2023-05-19T11:49:44;2.83;;;1.73;;
11439;SDS011;5776;51.814;4.510;2023-05-19T11:52:13;6.07;;;1.83;;
11439;SDS011;5776;51.814;4.510;2023-05-19T11:54:39;4.57;;;1.77;;
11439;SDS011;5776;51.814;4.510;2023-05-19T11:57:09;3.20;;;1.90;;
11439;SDS011;5776;51.814;4.510;2023-05-19T11:59:36;5.20;;;1.60;;
11439;SDS011;5776;51.814;4.510;2023-05-19T12:04:49;4.00;;;1.87;;
11439;SDS011;5776;51.814;4.510;2023-05-19T12:07:20;5.67;;;1.87;;
11439;SDS011;5776;51.814;4.510;2023-05-19T12:09:48;5.80;;;1.77;;
11439;SDS011;5776;51.814;4.510;2023-05-19T12:12:16;4.07;;;1.63;;
11439;SDS011;5776;51.814;4.510;2023-05-19T12:14:47;6.53;;;1.63;;
11439;SDS011;5776;51.814;4.510;2023-05-19T12:17:15;3.13;;;1.37;;
11439;SDS011;5776;51.814;4.510;2023-05-19T12:19:43;5.93;;;1.63;;
11439;SDS011;5776;51.814;4.510;2023-05-19T12:22:09;6.30;;;1.70;;
11439;SDS011;5776;51.814;4.510;2023-05-19T12:24:36;4.87;;;1.97;;
11439;SDS011;5776;51.814;4.510;2023-05-19T12:27:09;6.83;;;2.20;;
11439;SDS011;5776;51.814;4.510;2023-05-19T12:29:47;11.13;;;2.00;;
11439;SDS011;5776;51.814;4.510;2023-05-19T12:32:16;5.67;;;1.63;;
11439;SDS011;5776;51.814;4.510;2023-05-19T12:34:43;4.13;;;1.70;;
11439;SDS011;5776;51.814;4.510;2023-05-19T12:37:09;7.47;;;2.20;;
11439;SDS011;5776;51.814;4.510;2023-05-19T12:39:35;5.10;;;1.70;;
11439;SDS011;5776;51.814;4.510;2023-05-19T12:42:08;6.23;;;2.27;;
11439;SDS011;5776;51.814;4.510;2023-05-19T12:44:35;3.70;;;1.90;;
11439;SDS011;5776;51.814;4.510;2023-05-19T12:47:03;6.27;;;2.20;;
11439;SDS011;5776;51.814;4.510;2023-05-19T12:49:30;8.90;;;2.30;;
11439;SDS011;5776;51.814;4.510;2023-05-19T12:51:56;9.27;;;1.60;;
11439;SDS011;5776;51.814;4.510;2023-05-19T12:54:27;3.57;;;1.40;;
11439;SDS011;5776;51.814;4.510;2023-05-19T12:56:57;4.68;;;2.00;;
11439;SDS011;5776;51.814;4.510;2023-05-19T12:59:23;7.32;;;1.90;;
11439;SDS011;5776;51.814;4.510;2023-05-19T13:01:55;4.80;;;1.88;;
11439;SDS011;5776;51.814;4.510;2023-05-19T13:04:23;8.82;;;2.10;;
11439;SDS011;5776;51.814;4.510;2023-05-19T13:06:49;5.53;;;2.78;;
11439;SDS011;5776;51.814;4.510;2023-05-19T13:09:15;6.53;;;1.80;;
11439;SDS011;5776;51.814;4.510;2023-05-19T13:11:45;5.00;;;2.10;;
11439;SDS011;5776;51.814;4.510;2023-05-19T13:14:16;6.80;;;2.13;;
11439;SDS011;5776;51.814;4.510;2023-05-19T13:16:43;7.20;;;2.13;;
11439;SDS011;5776;51.814;4.510;2023-05-19T13:19:14;5.40;;;2.42;;
11439;SDS011;5776;51.814;4.510;2023-05-19T13:21:42;7.85;;;2.10;;
11439;SDS011;5776;51.814;4.510;2023-05-19T13:24:08;7.65;;;2.17;;
11439;SDS011;5776;51.814;4.510;2023-05-19T13:26:34;3.60;;;1.65;;
11439;SDS011;5776;51.814;4.510;2023-05-19T13:29:01;5.82;;;1.92;;
11439;SDS011;5776;51.814;4.510;2023-05-19T13:31:27;7.45;;;2.50;;
11439;SDS011;5776;51.814;4.510;2023-05-19T13:33:53;5.90;;;1.88;;
11439;SDS011;5776;51.814;4.510;2023-05-19T13:36:18;3.95;;;1.75;;
11439;SDS011;5776;51.814;4.510;2023-05-19T13:38:44;5.32;;;1.83;;
11439;SDS011;5776;51.814;4.510;2023-05-19T13:41:10;7.40;;;2.05;;
11439;SDS011;5776;51.814;4.510;2023-05-19T13:43:36;6.90;;;2.47;;
11439;SDS011;5776;51.814;4.510;2023-05-19T13:46:02;8.57;;;2.28;;
11439;SDS011;5776;51.814;4.510;2023-05-19T13:48:28;6.55;;;2.15;;
11439;SDS011;5776;51.814;4.510;2023-05-19T13:50:54;5.40;;;2.33;;
11439;SDS011;5776;51.814;4.510;2023-05-19T13:53:20;6.03;;;2.10;;
11439;SDS011;5776;51.814;4.510;2023-05-19T13:55:46;8.10;;;3.00;;
11439;SDS011;5776;51.814;4.510;2023-05-19T13:58:12;6.78;;;2.53;;
11439;SDS011;5776;51.814;4.510;2023-05-19T14:00:41;7.20;;;2.75;;
11439;SDS011;5776;51.814;4.510;2023-05-19T14:03:07;5.05;;;2.47;;
11439;SDS011;5776;51.814;4.510;2023-05-19T14:05:33;5.15;;;2.35;;
11439;SDS011;5776;51.814;4.510;2023-05-19T14:07:59;5.80;;;2.00;;
11439;SDS011;5776;51.814;4.510;2023-05-19T14:10:25;7.43;;;2.42;;
11439;SDS011;5776;51.814;4.510;2023-05-19T14:12:51;8.07;;;2.50;;
11439;SDS011;5776;51.814;4.510;2023-05-19T14:15:20;5.47;;;2.17;;
11439;SDS011;5776;51.814;4.510;2023-05-19T14:17:46;5.50;;;2.13;;
11439;SDS011;5776;51.814;4.510;2023-05-19T14:20:13;6.70;;;2.55;;
11439;SDS011;5776;51.814;4.510;2023-05-19T14:22:39;5.40;;;2.28;;
11439;SDS011;5776;51.814;4.510;2023-05-19T14:25:05;7.93;;;1.95;;
11439;SDS011;5776;51.814;4.510;2023-05-19T14:27:31;9.00;;;2.55;;
11439;SDS011;5776;51.814;4.510;2023-05-19T14:29:57;6.55;;;2.63;;
11439;SDS011;5776;51.814;4.510;2023-05-19T14:32:23;8.10;;;2.10;;
11439;SDS011;5776;51.814;4.510;2023-05-19T14:34:49;4.28;;;2.28;;
11439;SDS011;5776;51.814;4.510;2023-05-19T14:37:17;5.93;;;1.92;;
11439;SDS011;5776;51.814;4.510;2023-05-19T14:39:44;4.72;;;2.20;;
11439;SDS011;5776;51.814;4.510;2023-05-19T14:42:10;4.50;;;1.90;;
11439;SDS011;5776;51.814;4.510;2023-05-19T14:44:38;3.80;;;2.15;;
11439;SDS011;5776;51.814;4.510;2023-05-19T14:47:04;6.35;;;2.35;;
11439;SDS011;5776;51.814;4.510;2023-05-19T14:49:31;5.55;;;2.22;;
11439;SDS011;5776;51.814;4.510;2023-05-19T14:51:57;4.93;;;1.70;;
11439;SDS011;5776;51.814;4.510;2023-05-19T14:54:23;6.80;;;2.42;;
11439;SDS011;5776;51.814;4.510;2023-05-19T14:56:49;5.43;;;2.00;;
11439;SDS011;5776;51.814;4.510;2023-05-19T14:59:15;9.77;;;2.63;;
11439;SDS011;5776;51.814;4.510;2023-05-19T15:01:41;3.50;;;2.13;;
11439;SDS011;5776;51.814;4.510;2023-05-19T15:04:07;8.52;;;2.55;;
11439;SDS011;5776;51.814;4.510;2023-05-19T15:06:33;6.25;;;1.95;;
11439;SDS011;5776;51.814;4.510;2023-05-19T15:08:58;6.50;;;2.25;;
11439;SDS011;5776;51.814;4.510;2023-05-19T15:11:24;6.70;;;2.00;;
11439;SDS011;5776;51.814;4.510;2023-05-19T15:13:50;7.97;;;2.58;;
11439;SDS011;5776;51.814;4.510;2023-05-19T15:16:16;4.95;;;2.22;;
11439;SDS011;5776;51.814;4.510;2023-05-19T15:18:42;7.47;;;2.03;;
11439;SDS011;5776;51.814;4.510;2023-05-19T15:21:08;8.63;;;2.60;;
11439;SDS011;5776;51.814;4.510;2023-05-19T15:23:34;10.27;;;2.80;;
11439;SDS011;5776;51.814;4.510;2023-05-19T15:26:00;10.30;;;2.55;;
11439;SDS011;5776;51.814;4.510;2023-05-19T15:28:26;8.07;;;1.80;;
11439;SDS011;5776;51.814;4.510;2023-05-19T15:30:52;5.63;;;1.75;;
11439;SDS011;5776;51.814;4.510;2023-05-19T15:33:18;10.48;;;2.72;;
11439;SDS011;5776;51.814;4.510;2023-05-19T15:35:44;7.63;;;2.25;;
11439;SDS011;5776;51.814;4.510;2023-05-19T15:38:12;7.90;;;2.25;;